JST829 YBBN-YSSY
Flight info
| Callsign | JST829 |
|---|---|
| Flight time | 1h 17m |
| Altitude | 38000 |
| Route | SANEG2 SANEG H91 IGDAM H652 BOREE BOREE4A |
| Aircraft | A320/M-VGDW/C |
Departure
| Time | 2026-05-01 09:19 |
|---|---|
| Airport | Brisbane International Airport (YBBN) |
Arrival
| Time | 2026-05-01 10:36 |
|---|---|
| Airport | Sydney Kingsford Smith International Airport (YSSY) |
| Time | Latitude | Longitude | Altitude | Speed | Heading |
|---|---|---|---|---|---|
| 2026-05-01 08:46 | -27.38529 | 153.12121 | 18 ft | 0 kts | 289° |
| 2026-05-01 09:07 | -27.38535 | 153.12138 | 19 ft | 2 kts | 289° |
| 2026-05-01 09:07 | -27.38540 | 153.12157 | 20 ft | 3 kts | 269° |
| 2026-05-01 09:08 | -27.38536 | 153.12176 | 20 ft | 2 kts | 234° |
| 2026-05-01 09:08 | -27.38527 | 153.12192 | 21 ft | 3 kts | 232° |
| 2026-05-01 09:08 | -27.38515 | 153.12205 | 18 ft | 2 kts | 219° |
| 2026-05-01 09:08 | -27.38502 | 153.12217 | 18 ft | 2 kts | 219° |
| 2026-05-01 09:09 | -27.38489 | 153.12231 | 19 ft | 3 kts | 246° |
| 2026-05-01 09:09 | -27.38485 | 153.12245 | 18 ft | 1 kts | 269° |
| 2026-05-01 09:09 | -27.38485 | 153.12263 | 18 ft | 3 kts | 286° |
| 2026-05-01 09:09 | -27.38490 | 153.12277 | 19 ft | 2 kts | 296° |
| 2026-05-01 09:10 | -27.38497 | 153.12294 | 21 ft | 2 kts | 295° |
| 2026-05-01 09:10 | -27.38504 | 153.12310 | 20 ft | 2 kts | 296° |
| 2026-05-01 09:10 | -27.38510 | 153.12323 | 20 ft | 0 kts | 296° |
| 2026-05-01 09:10 | -27.38509 | 153.12323 | 20 ft | 0 kts | 296° |
| 2026-05-01 09:13 | -27.38505 | 153.12318 | 20 ft | 2 kts | 311° |
| 2026-05-01 09:13 | -27.38490 | 153.12308 | 19 ft | 3 kts | 338° |
| 2026-05-01 09:14 | -27.38463 | 153.12318 | 18 ft | 5 kts | 39° |
| 2026-05-01 09:14 | -27.38449 | 153.12361 | 20 ft | 7 kts | 78° |
| 2026-05-01 09:14 | -27.38448 | 153.12421 | 18 ft | 9 kts | 109° |
| 2026-05-01 09:14 | -27.38455 | 153.12494 | 18 ft | 10 kts | 64° |
| 2026-05-01 09:15 | -27.38390 | 153.12541 | 18 ft | 12 kts | 28° |
| 2026-05-01 09:15 | -27.38308 | 153.12587 | 18 ft | 14 kts | 24° |
| 2026-05-01 09:15 | -27.38212 | 153.12642 | 18 ft | 17 kts | 27° |
| 2026-05-01 09:15 | -27.38110 | 153.12700 | 18 ft | 16 kts | 27° |
| 2026-05-01 09:16 | -27.38022 | 153.12752 | 18 ft | 13 kts | 28° |
| 2026-05-01 09:16 | -27.37998 | 153.12832 | 18 ft | 6 kts | 116° |
| 2026-05-01 09:16 | -27.38022 | 153.12885 | 18 ft | 9 kts | 116° |
| 2026-05-01 09:17 | -27.38087 | 153.13031 | 21 ft | 11 kts | 116° |
| 2026-05-01 09:17 | -27.38142 | 153.13047 | 23 ft | 8 kts | 198° |
| 2026-05-01 09:17 | -27.38171 | 153.13026 | 22 ft | 4 kts | 210° |
| 2026-05-01 09:18 | -27.38207 | 153.13005 | 22 ft | 9 kts | 207° |
| 2026-05-01 09:18 | -27.39129 | 153.12480 | 20 ft | 134 kts | 207° |
| 2026-05-01 09:19 | -27.41171 | 153.11332 | 644 ft | 180 kts | 203° |
| 2026-05-01 09:19 | -27.42360 | 153.10759 | 1184 ft | 191 kts | 190° |
| 2026-05-01 09:19 | -27.43691 | 153.10886 | 1645 ft | 203 kts | 156° |
| 2026-05-01 09:20 | -27.46140 | 153.12500 | 3364 ft | 202 kts | 145° |
| 2026-05-01 09:20 | -27.48642 | 153.14191 | 4834 ft | 218 kts | 148° |
| 2026-05-01 09:21 | -27.51744 | 153.14493 | 6049 ft | 241 kts | 187° |
| 2026-05-01 09:21 | -27.53383 | 153.14088 | 6916 ft | 242 kts | 188° |
| 2026-05-01 09:21 | -27.56685 | 153.13094 | 8578 ft | 251 kts | 195° |
| 2026-05-01 09:22 | -27.60021 | 153.11764 | 10210 ft | 259 kts | 195° |
| 2026-05-01 09:22 | -27.63479 | 153.10462 | 11728 ft | 264 kts | 193° |
| 2026-05-01 09:23 | -27.65249 | 153.09869 | 12500 ft | 266 kts | 193° |
| 2026-05-01 09:23 | -27.68829 | 153.08708 | 14024 ft | 272 kts | 193° |
| 2026-05-01 09:24 | -27.72492 | 153.07506 | 15376 ft | 277 kts | 194° |
| 2026-05-01 09:24 | -27.74348 | 153.06889 | 16055 ft | 279 kts | 194° |
| 2026-05-01 09:24 | -27.78100 | 153.05634 | 17397 ft | 283 kts | 195° |
| 2026-05-01 09:25 | -27.81977 | 153.04330 | 18237 ft | 308 kts | 196° |
| 2026-05-01 09:25 | -27.86246 | 153.02571 | 18513 ft | 349 kts | 200° |
| 2026-05-01 09:26 | -27.88555 | 153.01529 | 18712 ft | 364 kts | 201° |
| 2026-05-01 09:26 | -27.93337 | 152.99359 | 19752 ft | 374 kts | 201° |
| 2026-05-01 09:26 | -27.95763 | 152.98275 | 20360 ft | 376 kts | 200° |
| 2026-05-01 09:27 | -28.00670 | 152.96118 | 21570 ft | 381 kts | 200° |
| 2026-05-01 09:27 | -28.03158 | 152.95034 | 22154 ft | 383 kts | 200° |
| 2026-05-01 09:27 | -28.05660 | 152.93945 | 22734 ft | 386 kts | 200° |
| 2026-05-01 09:28 | -28.08169 | 152.92849 | 23320 ft | 388 kts | 201° |
| 2026-05-01 09:28 | -28.10697 | 152.91737 | 23883 ft | 391 kts | 201° |
| 2026-05-01 09:28 | -28.13237 | 152.90610 | 24350 ft | 393 kts | 201° |
| 2026-05-01 09:28 | -28.15791 | 152.89468 | 24817 ft | 396 kts | 201° |
| 2026-05-01 09:29 | -28.20944 | 152.87168 | 25733 ft | 400 kts | 201° |
| 2026-05-01 09:29 | -28.23537 | 152.86012 | 26190 ft | 402 kts | 202° |
| 2026-05-01 09:30 | -28.28768 | 152.83681 | 27061 ft | 406 kts | 202° |
| 2026-05-01 09:30 | -28.31401 | 152.82507 | 27478 ft | 408 kts | 202° |
| 2026-05-01 09:30 | -28.36674 | 152.80151 | 28321 ft | 412 kts | 202° |
| 2026-05-01 09:31 | -28.39348 | 152.78958 | 28750 ft | 413 kts | 202° |
| 2026-05-01 09:31 | -28.42029 | 152.77763 | 29158 ft | 416 kts | 202° |
| 2026-05-01 09:31 | -28.47453 | 152.75351 | 29984 ft | 420 kts | 202° |
| 2026-05-01 09:32 | -28.50182 | 152.74134 | 30390 ft | 422 kts | 202° |
| 2026-05-01 09:32 | -28.55670 | 152.71669 | 31059 ft | 426 kts | 203° |
| 2026-05-01 09:32 | -28.58433 | 152.70426 | 31387 ft | 428 kts | 203° |
| 2026-05-01 09:33 | -28.61206 | 152.69178 | 31707 ft | 430 kts | 203° |
| 2026-05-01 09:33 | -28.63983 | 152.67927 | 32111 ft | 429 kts | 203° |
| 2026-05-01 09:33 | -28.69514 | 152.65453 | 33052 ft | 425 kts | 203° |
| 2026-05-01 09:34 | -28.72230 | 152.64238 | 33524 ft | 424 kts | 203° |
| 2026-05-01 09:34 | -28.74972 | 152.63008 | 33992 ft | 423 kts | 204° |
| 2026-05-01 09:34 | -28.80428 | 152.60547 | 34811 ft | 421 kts | 204° |
| 2026-05-01 09:35 | -28.83153 | 152.59316 | 35141 ft | 421 kts | 204° |
| 2026-05-01 09:35 | -28.88425 | 152.56440 | 35749 ft | 420 kts | 210° |
| 2026-05-01 09:35 | -28.91019 | 152.54895 | 36051 ft | 421 kts | 210° |
| 2026-05-01 09:36 | -28.93620 | 152.53348 | 36343 ft | 421 kts | 210° |
| 2026-05-01 09:36 | -28.96227 | 152.51797 | 36636 ft | 422 kts | 210° |
| 2026-05-01 09:36 | -28.98836 | 152.50243 | 36911 ft | 422 kts | 210° |
| 2026-05-01 09:36 | -29.01445 | 152.48689 | 37186 ft | 423 kts | 210° |
| 2026-05-01 09:37 | -29.04019 | 152.47158 | 37466 ft | 423 kts | 210° |
| 2026-05-01 09:37 | -29.09250 | 152.44038 | 37996 ft | 424 kts | 210° |
| 2026-05-01 09:37 | -29.11865 | 152.42478 | 38242 ft | 424 kts | 210° |
| 2026-05-01 09:38 | -29.19753 | 152.37772 | 38330 ft | 426 kts | 210° |
| 2026-05-01 09:39 | -29.27392 | 152.33198 | 38338 ft | 425 kts | 210° |
| 2026-05-01 09:39 | -29.32606 | 152.30067 | 38338 ft | 425 kts | 210° |
| 2026-05-01 09:40 | -29.40479 | 152.25341 | 38349 ft | 426 kts | 210° |
| 2026-05-01 09:41 | -29.45733 | 152.22178 | 38355 ft | 426 kts | 210° |
| 2026-05-01 09:41 | -29.53581 | 152.17448 | 38357 ft | 426 kts | 210° |
| 2026-05-01 09:42 | -29.58835 | 152.14285 | 38361 ft | 426 kts | 210° |
| 2026-05-01 09:43 | -29.69366 | 152.07995 | 38369 ft | 428 kts | 205° |
| 2026-05-01 09:43 | -29.75133 | 152.06169 | 38373 ft | 431 kts | 195° |
| 2026-05-01 09:44 | -29.83922 | 152.03885 | 38376 ft | 431 kts | 195° |
| 2026-05-01 09:45 | -29.89743 | 152.02359 | 38381 ft | 431 kts | 196° |
| 2026-05-01 09:45 | -29.98529 | 152.00053 | 38381 ft | 432 kts | 195° |
| 2026-05-01 09:46 | -30.04392 | 151.98528 | 38387 ft | 432 kts | 195° |
| 2026-05-01 09:46 | -30.10259 | 151.96993 | 38398 ft | 432 kts | 195° |
| 2026-05-01 09:47 | -30.16088 | 151.95455 | 38398 ft | 432 kts | 195° |
| 2026-05-01 09:47 | -30.20957 | 151.94171 | 38397 ft | 432 kts | 195° |
| 2026-05-01 09:48 | -30.26823 | 151.92624 | 38387 ft | 431 kts | 195° |
| 2026-05-01 09:48 | -30.33559 | 151.90595 | 38392 ft | 428 kts | 204° |
| 2026-05-01 09:49 | -30.38190 | 151.88437 | 38394 ft | 428 kts | 204° |
| 2026-05-01 09:49 | -30.43725 | 151.85865 | 38395 ft | 428 kts | 204° |
| 2026-05-01 09:50 | -30.49219 | 151.83311 | 38395 ft | 428 kts | 204° |
| 2026-05-01 09:50 | -30.54753 | 151.80733 | 38404 ft | 428 kts | 204° |
| 2026-05-01 09:51 | -30.60292 | 151.78146 | 38408 ft | 428 kts | 204° |
| 2026-05-01 09:51 | -30.65824 | 151.75568 | 38399 ft | 429 kts | 204° |
| 2026-05-01 09:52 | -30.71356 | 151.72985 | 38402 ft | 429 kts | 204° |
| 2026-05-01 09:52 | -30.76898 | 151.70390 | 38402 ft | 429 kts | 204° |
| 2026-05-01 09:53 | -30.82398 | 151.67812 | 38401 ft | 428 kts | 204° |
| 2026-05-01 09:53 | -30.87931 | 151.65206 | 38405 ft | 428 kts | 204° |
| 2026-05-01 09:54 | -30.93460 | 151.62603 | 38407 ft | 428 kts | 204° |
| 2026-05-01 09:54 | -30.98958 | 151.60018 | 38404 ft | 429 kts | 204° |
| 2026-05-01 09:55 | -31.04505 | 151.57406 | 38402 ft | 429 kts | 204° |
| 2026-05-01 09:55 | -31.10045 | 151.54796 | 38404 ft | 429 kts | 204° |
| 2026-05-01 09:56 | -31.15549 | 151.52189 | 38401 ft | 429 kts | 204° |
| 2026-05-01 09:56 | -31.21093 | 151.49574 | 38405 ft | 429 kts | 204° |
| 2026-05-01 09:57 | -31.26630 | 151.46951 | 38398 ft | 429 kts | 204° |
| 2026-05-01 09:57 | -31.32169 | 151.44326 | 38408 ft | 430 kts | 204° |
| 2026-05-01 09:58 | -31.37706 | 151.41688 | 38403 ft | 430 kts | 204° |
| 2026-05-01 09:58 | -31.43261 | 151.39108 | 38400 ft | 430 kts | 203° |
| 2026-05-01 09:59 | -31.48832 | 151.36651 | 38399 ft | 430 kts | 202° |
| 2026-05-01 09:59 | -31.54434 | 151.34190 | 38399 ft | 430 kts | 203° |
| 2026-05-01 10:00 | -31.60042 | 151.31698 | 38393 ft | 430 kts | 203° |
| 2026-05-01 10:00 | -31.65634 | 151.29182 | 38390 ft | 430 kts | 203° |
| 2026-05-01 10:01 | -31.71226 | 151.26670 | 38388 ft | 430 kts | 203° |
| 2026-05-01 10:01 | -31.76813 | 151.24155 | 38389 ft | 430 kts | 203° |
| 2026-05-01 10:02 | -31.82403 | 151.21636 | 38207 ft | 431 kts | 203° |
| 2026-05-01 10:02 | -31.85199 | 151.20374 | 37932 ft | 430 kts | 203° |
| 2026-05-01 10:02 | -31.87958 | 151.19133 | 37670 ft | 430 kts | 203° |
| 2026-05-01 10:03 | -31.90754 | 151.17874 | 37412 ft | 430 kts | 203° |
| 2026-05-01 10:03 | -31.93553 | 151.16615 | 37150 ft | 430 kts | 203° |
| 2026-05-01 10:03 | -31.96346 | 151.15356 | 36901 ft | 430 kts | 203° |
| 2026-05-01 10:03 | -31.99138 | 151.14102 | 36646 ft | 430 kts | 203° |
| 2026-05-01 10:04 | -32.01937 | 151.12850 | 36400 ft | 430 kts | 203° |
| 2026-05-01 10:04 | -32.04746 | 151.11595 | 36151 ft | 431 kts | 203° |
| 2026-05-01 10:04 | -32.07543 | 151.10347 | 35887 ft | 428 kts | 202° |
| 2026-05-01 10:04 | -32.10309 | 151.09110 | 35451 ft | 425 kts | 202° |
| 2026-05-01 10:05 | -32.13073 | 151.07867 | 34978 ft | 422 kts | 202° |
| 2026-05-01 10:05 | -32.15811 | 151.06635 | 34500 ft | 420 kts | 202° |
| 2026-05-01 10:05 | -32.18537 | 151.05409 | 33987 ft | 418 kts | 202° |
| 2026-05-01 10:05 | -32.21246 | 151.04184 | 33512 ft | 414 kts | 202° |
| 2026-05-01 10:06 | -32.23926 | 151.02971 | 33051 ft | 411 kts | 202° |
| 2026-05-01 10:06 | -32.26586 | 151.01771 | 32578 ft | 408 kts | 202° |
| 2026-05-01 10:06 | -32.29234 | 151.00578 | 32114 ft | 405 kts | 202° |
| 2026-05-01 10:06 | -32.31868 | 150.99395 | 31653 ft | 403 kts | 202° |
| 2026-05-01 10:07 | -32.34479 | 150.98222 | 31204 ft | 401 kts | 202° |
| 2026-05-01 10:07 | -32.37052 | 150.97060 | 30768 ft | 399 kts | 202° |
| 2026-05-01 10:07 | -32.39642 | 150.95887 | 30309 ft | 398 kts | 202° |
| 2026-05-01 10:07 | -32.42231 | 150.94712 | 29852 ft | 395 kts | 202° |
| 2026-05-01 10:08 | -32.47356 | 150.92453 | 29012 ft | 391 kts | 197° |
| 2026-05-01 10:08 | -32.50020 | 150.91841 | 28611 ft | 390 kts | 186° |
| 2026-05-01 10:08 | -32.52737 | 150.91807 | 28199 ft | 390 kts | 176° |
| 2026-05-01 10:09 | -32.55410 | 150.92243 | 27809 ft | 388 kts | 172° |
| 2026-05-01 10:09 | -32.58081 | 150.92719 | 27408 ft | 387 kts | 172° |
| 2026-05-01 10:09 | -32.60740 | 150.93186 | 27013 ft | 385 kts | 172° |
| 2026-05-01 10:09 | -32.63386 | 150.93648 | 26615 ft | 383 kts | 172° |
| 2026-05-01 10:10 | -32.66019 | 150.94109 | 26220 ft | 382 kts | 172° |
| 2026-05-01 10:10 | -32.68643 | 150.94570 | 25816 ft | 381 kts | 172° |
| 2026-05-01 10:10 | -32.73875 | 150.95496 | 24968 ft | 379 kts | 172° |
| 2026-05-01 10:11 | -32.76480 | 150.95963 | 24547 ft | 379 kts | 172° |
| 2026-05-01 10:11 | -32.79088 | 150.96428 | 24106 ft | 378 kts | 172° |
| 2026-05-01 10:11 | -32.81690 | 150.96891 | 23628 ft | 378 kts | 172° |
| 2026-05-01 10:11 | -32.84283 | 150.97350 | 23186 ft | 375 kts | 172° |
| 2026-05-01 10:12 | -32.86861 | 150.97806 | 22736 ft | 373 kts | 171° |
| 2026-05-01 10:12 | -32.89415 | 150.98261 | 22295 ft | 370 kts | 171° |
| 2026-05-01 10:12 | -32.94476 | 150.99166 | 21406 ft | 366 kts | 171° |
| 2026-05-01 10:13 | -32.96991 | 150.99619 | 20973 ft | 364 kts | 171° |
| 2026-05-01 10:13 | -32.99455 | 151.00058 | 20534 ft | 362 kts | 171° |
| 2026-05-01 10:13 | -33.01970 | 151.00507 | 20091 ft | 360 kts | 171° |
| 2026-05-01 10:14 | -33.06887 | 151.01388 | 19214 ft | 357 kts | 171° |
| 2026-05-01 10:14 | -33.09343 | 151.01825 | 18779 ft | 356 kts | 171° |
| 2026-05-01 10:14 | -33.11794 | 151.02260 | 18296 ft | 355 kts | 171° |
| 2026-05-01 10:14 | -33.14223 | 151.02696 | 17858 ft | 352 kts | 171° |
| 2026-05-01 10:15 | -33.16635 | 151.03130 | 17428 ft | 349 kts | 171° |
| 2026-05-01 10:15 | -33.19029 | 151.03558 | 16996 ft | 346 kts | 171° |
| 2026-05-01 10:15 | -33.21407 | 151.03981 | 16575 ft | 344 kts | 171° |
| 2026-05-01 10:15 | -33.23768 | 151.04404 | 16148 ft | 342 kts | 171° |
| 2026-05-01 10:16 | -33.26113 | 151.04838 | 15729 ft | 340 kts | 170° |
| 2026-05-01 10:16 | -33.28446 | 151.05286 | 15310 ft | 339 kts | 170° |
| 2026-05-01 10:16 | -33.33056 | 151.06188 | 14490 ft | 336 kts | 170° |
| 2026-05-01 10:17 | -33.35371 | 151.06639 | 14064 ft | 335 kts | 170° |
| 2026-05-01 10:17 | -33.39949 | 151.07520 | 13225 ft | 331 kts | 170° |
| 2026-05-01 10:17 | -33.42221 | 151.07953 | 12819 ft | 329 kts | 170° |
| 2026-05-01 10:18 | -33.46691 | 151.08802 | 12019 ft | 325 kts | 170° |
| 2026-05-01 10:18 | -33.48919 | 151.09226 | 11620 ft | 324 kts | 169° |
| 2026-05-01 10:18 | -33.51143 | 151.09652 | 11297 ft | 320 kts | 169° |
| 2026-05-01 10:19 | -33.53311 | 151.10070 | 11120 ft | 312 kts | 169° |
| 2026-05-01 10:19 | -33.55441 | 151.10483 | 10811 ft | 309 kts | 169° |
| 2026-05-01 10:19 | -33.57556 | 151.10892 | 10481 ft | 307 kts | 169° |
| 2026-05-01 10:20 | -33.61727 | 151.11699 | 9273 ft | 301 kts | 169° |
| 2026-05-01 10:20 | -33.63781 | 151.12104 | 8697 ft | 296 kts | 169° |
| 2026-05-01 10:20 | -33.65781 | 151.12500 | 8469 ft | 289 kts | 169° |
| 2026-05-01 10:20 | -33.67778 | 151.12900 | 8346 ft | 290 kts | 167° |
| 2026-05-01 10:21 | -33.69671 | 151.13619 | 8220 ft | 287 kts | 152° |
| 2026-05-01 10:21 | -33.72745 | 151.16568 | 8064 ft | 283 kts | 131° |
| 2026-05-01 10:21 | -33.74111 | 151.18271 | 7928 ft | 282 kts | 132° |
| 2026-05-01 10:22 | -33.76833 | 151.21649 | 7633 ft | 280 kts | 132° |
| 2026-05-01 10:22 | -33.79536 | 151.25006 | 7345 ft | 279 kts | 132° |
| 2026-05-01 10:23 | -33.80888 | 151.26687 | 7202 ft | 278 kts | 132° |
| 2026-05-01 10:23 | -33.84055 | 151.29250 | 6912 ft | 280 kts | 160° |
| 2026-05-01 10:23 | -33.85949 | 151.29809 | 6764 ft | 281 kts | 166° |
| 2026-05-01 10:24 | -33.89768 | 151.30803 | 6467 ft | 279 kts | 166° |
| 2026-05-01 10:24 | -33.93566 | 151.31803 | 6178 ft | 278 kts | 166° |
| 2026-05-01 10:25 | -33.97346 | 151.32795 | 5820 ft | 277 kts | 166° |
| 2026-05-01 10:25 | -34.01103 | 151.33775 | 5344 ft | 275 kts | 166° |
| 2026-05-01 10:26 | -34.02979 | 151.34264 | 5109 ft | 275 kts | 166° |
| 2026-05-01 10:26 | -34.04818 | 151.34740 | 4868 ft | 274 kts | 166° |
| 2026-05-01 10:26 | -34.08538 | 151.35714 | 4324 ft | 274 kts | 166° |
| 2026-05-01 10:27 | -34.12198 | 151.36681 | 3520 ft | 261 kts | 166° |
| 2026-05-01 10:27 | -34.15628 | 151.37583 | 2715 ft | 245 kts | 166° |
| 2026-05-01 10:28 | -34.17287 | 151.38010 | 2313 ft | 242 kts | 166° |
| 2026-05-01 10:28 | -34.20456 | 151.38816 | 2006 ft | 224 kts | 165° |
| 2026-05-01 10:28 | -34.22014 | 151.38840 | 2007 ft | 228 kts | 194° |
| 2026-05-01 10:29 | -34.24051 | 151.36142 | 2018 ft | 228 kts | 258° |
| 2026-05-01 10:29 | -34.24353 | 151.34261 | 2012 ft | 227 kts | 265° |
| 2026-05-01 10:30 | -34.23508 | 151.30833 | 2019 ft | 216 kts | 318° |
| 2026-05-01 10:30 | -34.21251 | 151.28410 | 2010 ft | 217 kts | 323° |
| 2026-05-01 10:31 | -34.18955 | 151.26044 | 2010 ft | 218 kts | 323° |
| 2026-05-01 10:31 | -34.16363 | 151.24397 | 2009 ft | 211 kts | 351° |
| 2026-05-01 10:32 | -34.13606 | 151.23683 | 2008 ft | 191 kts | 351° |
| 2026-05-01 10:32 | -34.12751 | 151.23461 | 2004 ft | 188 kts | 351° |
| 2026-05-01 10:32 | -34.09799 | 151.22692 | 2012 ft | 186 kts | 351° |
| 2026-05-01 10:33 | -34.07797 | 151.22169 | 1983 ft | 162 kts | 351° |
| 2026-05-01 10:33 | -34.05375 | 151.21538 | 1651 ft | 142 kts | 352° |
| 2026-05-01 10:34 | -34.04744 | 151.21374 | 1526 ft | 138 kts | 351° |
| 2026-05-01 10:34 | -34.03818 | 151.21133 | 1347 ft | 135 kts | 351° |
| 2026-05-01 10:34 | -34.02905 | 151.20896 | 1176 ft | 134 kts | 352° |
| 2026-05-01 10:35 | -34.01085 | 151.20434 | 822 ft | 134 kts | 352° |
| 2026-05-01 10:35 | -34.00178 | 151.20199 | 680 ft | 134 kts | 350° |
| 2026-05-01 10:35 | -33.99264 | 151.19955 | 499 ft | 134 kts | 350° |
| 2026-05-01 10:35 | -33.98345 | 151.19710 | 325 ft | 136 kts | 349° |
| 2026-05-01 10:36 | -33.96505 | 151.19233 | 24 ft | 125 kts | 351° |
| 2026-05-01 10:36 | -33.95936 | 151.19087 | 29 ft | 51 kts | 347° |
| 2026-05-01 10:36 | -33.95654 | 151.19015 | 25 ft | 35 kts | 348° |
| 2026-05-01 10:37 | -33.95536 | 151.18984 | 26 ft | 16 kts | 347° |
| 2026-05-01 10:37 | -33.95304 | 151.18852 | 22 ft | 19 kts | 323° |
| 2026-05-01 10:37 | -33.95199 | 151.18752 | 26 ft | 20 kts | 320° |
| 2026-05-01 10:38 | -33.95111 | 151.18658 | 25 ft | 17 kts | 316° |
| 2026-05-01 10:38 | -33.95097 | 151.18533 | 27 ft | 14 kts | 257° |
| 2026-05-01 10:38 | -33.95120 | 151.18413 | 24 ft | 15 kts | 258° |
| 2026-05-01 10:38 | -33.95140 | 151.18276 | 24 ft | 18 kts | 257° |
| 2026-05-01 10:39 | -33.95173 | 151.18119 | 26 ft | 20 kts | 257° |
| 2026-05-01 10:39 | -33.95180 | 151.18081 | 30 ft | 0 kts | 257° |
| 2026-05-01 10:41 | -33.95181 | 151.18077 | 29 ft | 2 kts | 257° |
| 2026-05-01 10:42 | -33.95192 | 151.18019 | 25 ft | 11 kts | 257° |
| 2026-05-01 10:42 | -33.95139 | 151.17956 | 27 ft | 14 kts | 347° |
| 2026-05-01 10:42 | -33.95019 | 151.17927 | 26 ft | 20 kts | 349° |
| 2026-05-01 10:42 | -33.94866 | 151.17885 | 22 ft | 25 kts | 346° |
| 2026-05-01 10:43 | -33.94692 | 151.17840 | 23 ft | 19 kts | 348° |
| 2026-05-01 10:43 | -33.94556 | 151.17805 | 23 ft | 21 kts | 346° |
| 2026-05-01 10:43 | -33.94401 | 151.17759 | 24 ft | 24 kts | 345° |
| 2026-05-01 10:43 | -33.94224 | 151.17704 | 21 ft | 24 kts | 346° |
| 2026-05-01 10:44 | -33.94069 | 151.17658 | 22 ft | 20 kts | 347° |
| 2026-05-01 10:44 | -33.93916 | 151.17619 | 19 ft | 22 kts | 351° |
| 2026-05-01 10:44 | -33.93871 | 151.17667 | 19 ft | 6 kts | 91° |
| 2026-05-01 10:44 | -33.93854 | 151.17750 | 20 ft | 16 kts | 57° |
| 2026-05-01 10:45 | -33.93751 | 151.17791 | 27 ft | 15 kts | 11° |
| 2026-05-01 10:45 | -33.93658 | 151.17811 | 29 ft | 13 kts | 8° |
| 2026-05-01 10:45 | -33.93601 | 151.17821 | 31 ft | 9 kts | 9° |
| 2026-05-01 10:45 | -33.93572 | 151.17853 | 31 ft | 7 kts | 81° |
| 2026-05-01 10:46 | -33.93577 | 151.17899 | 31 ft | 2 kts | 98° |
| 2026-05-01 10:46 | -33.93577 | 151.17902 | 31 ft | 0 kts | 98° |
| 2026-05-01 11:37 | -33.93575 | 151.17888 | 31 ft | 3 kts | 98° |
| 2026-05-01 11:37 | -33.93573 | 151.17867 | 30 ft | 3 kts | 98° |
| 2026-05-01 11:37 | -33.93569 | 151.17846 | 30 ft | 3 kts | 122° |
| 2026-05-01 11:37 | -33.93557 | 151.17830 | 30 ft | 3 kts | 159° |
| 2026-05-01 11:38 | -33.93546 | 151.17826 | 30 ft | 0 kts | 174° |